Time;durP1;ratioP1;P1;durP2;ratioP2;P2;SDS_P1;SDS_P2;PMS_P1;PMS_P2;Temp;Humidity;BMP_temperature;BMP_pressure;BME280_temperature;BME280_humidity;BME280_pressure;Samples;Min_cycle;Max_cycle;Signal;HPM_P1;HPM_P2
2023/12/18 00:01:51;;;;;;;2.10;0.60;;;;;;;7.44;100.00;102398.00;5056275;28;20521;-63
2023/12/18 00:04:19;;;;;;;2.50;1.07;;;;;;;7.40;100.00;102392.25;5055710;28;20496;-64
2023/12/18 00:06:47;;;;;;;2.83;1.27;;;;;;;7.44;100.00;102388.03;5056210;28;20531;-63
2023/12/18 00:09:14;;;;;;;2.40;0.70;;;;;;;7.43;100.00;102383.66;5055895;28;20465;-63
2023/12/18 00:11:40;;;;;;;3.63;0.57;;;;;;;7.37;100.00;102379.22;5056172;28;20444;-64
2023/12/18 00:14:07;;;;;;;2.50;0.83;;;;;;;7.38;100.00;102382.75;5055747;28;21080;-63
2023/12/18 00:16:33;;;;;;;1.90;0.50;;;;;;;7.32;100.00;102384.50;5056034;28;20437;-63
2023/12/18 00:19:00;;;;;;;3.07;1.10;;;;;;;7.47;100.00;102389.41;5055438;28;20446;-64
2023/12/18 00:21:27;;;;;;;2.60;0.93;;;;;;;7.46;100.00;102380.50;5055754;28;20485;-65
2023/12/18 00:23:55;;;;;;;2.67;0.80;;;;;;;7.52;100.00;102379.56;5055590;28;20975;-63
2023/12/18 00:26:23;;;;;;;2.00;0.60;;;;;;;7.49;100.00;102377.34;5056138;28;20478;-64
2023/12/18 00:28:49;;;;;;;2.23;0.67;;;;;;;7.52;100.00;102367.94;5055911;28;20442;-63
2023/12/18 00:31:16;;;;;;;2.13;0.73;;;;;;;7.52;100.00;102373.34;5055805;28;20442;-63
2023/12/18 00:33:42;;;;;;;2.77;1.00;;;;;;;7.52;100.00;102373.34;5055773;28;20573;-64
2023/12/18 00:36:09;;;;;;;2.30;0.80;;;;;;;7.53;100.00;102365.03;5055179;28;20435;-64
2023/12/18 00:38:37;;;;;;;2.67;0.83;;;;;;;7.51;100.00;102364.44;5055458;28;20430;-63
2023/12/18 00:41:05;;;;;;;2.77;0.80;;;;;;;7.63;100.00;102366.31;5055022;28;20480;-63
2023/12/18 00:43:31;;;;;;;2.27;0.60;;;;;;;7.63;100.00;102361.72;5055760;28;20464;-64
2023/12/18 00:45:58;;;;;;;2.67;0.70;;;;;;;7.62;100.00;102359.28;5054303;28;20485;-65
2023/12/18 00:48:24;;;;;;;2.43;0.90;;;;;;;7.62;100.00;102361.97;5054877;28;20473;-64
2023/12/18 00:50:51;;;;;;;2.00;0.63;;;;;;;7.64;100.00;102357.16;5055136;28;20773;-63
2023/12/18 00:53:17;;;;;;;2.87;1.00;;;;;;;7.63;100.00;102350.94;5055118;28;20526;-64
2023/12/18 00:55:44;;;;;;;3.60;1.33;;;;;;;7.69;100.00;102354.56;5054675;28;20451;-63
2023/12/18 00:58:12;;;;;;;3.40;0.97;;;;;;;7.67;100.00;102357.50;5055272;28;20438;-63
2023/12/18 01:00:39;;;;;;;2.70;1.00;;;;;;;7.69;100.00;102360.78;5054892;28;20508;-64
2023/12/18 01:03:05;;;;;;;2.00;0.60;;;;;;;7.67;100.00;102344.03;5055230;28;20522;-63
2023/12/18 01:05:32;;;;;;;3.73;1.07;;;;;;;7.54;100.00;102336.19;5054795;28;20460;-63
2023/12/18 01:07:59;;;;;;;2.30;0.73;;;;;;;7.46;100.00;102340.06;5054614;28;20958;-63
2023/12/18 01:10:26;;;;;;;2.00;0.60;;;;;;;7.52;100.00;102335.59;5054789;28;20521;-63
2023/12/18 01:12:52;;;;;;;1.90;0.50;;;;;;;7.46;100.00;102339.25;5054679;28;20454;-63
2023/12/18 01:15:20;;;;;;;2.50;0.90;;;;;;;7.40;100.00;102340.22;5054534;28;20565;-63
2023/12/18 01:17:47;;;;;;;2.60;0.70;;;;;;;7.35;100.00;102327.44;5054614;28;20510;-63
2023/12/18 01:20:13;;;;;;;3.10;1.00;;;;;;;7.30;100.00;102330.84;5068067;22;20545;-68
2023/12/18 01:22:40;;;;;;;3.30;1.10;;;;;;;7.32;100.00;102341.38;5035118;28;20518;-68
2023/12/18 01:25:08;;;;;;;3.13;1.27;;;;;;;7.33;100.00;102333.03;5034070;28;20466;-68
2023/12/18 01:27:34;;;;;;;3.13;1.10;;;;;;;7.28;100.00;102321.34;5034371;28;20512;-68
2023/12/18 01:30:01;;;;;;;2.97;1.03;;;;;;;7.26;100.00;102324.28;5034113;28;20478;-68
2023/12/18 01:32:29;;;;;;;2.23;0.60;;;;;;;7.29;100.00;102331.06;5034016;28;20813;-68
2023/12/18 01:34:55;;;;;;;3.57;0.80;;;;;;;7.26;100.00;102329.66;5034649;28;20467;-68
2023/12/18 01:37:22;;;;;;;2.63;0.83;;;;;;;7.28;100.00;102332.94;5034311;28;20431;-68
2023/12/18 01:39:48;;;;;;;3.83;1.37;;;;;;;7.31;100.00;102326.28;5034571;28;20809;-68
2023/12/18 01:42:15;;;;;;;2.10;0.60;;;;;;;7.28;100.00;102324.84;5034074;28;20478;-68
2023/12/18 01:44:42;;;;;;;3.30;1.43;;;;;;;7.29;100.00;102339.97;5034102;28;20502;-68
2023/12/18 01:47:09;;;;;;;2.50;0.70;;;;;;;7.26;100.00;102340.44;5034391;28;20492;-69
2023/12/18 01:49:37;;;;;;;2.40;0.83;;;;;;;7.29;100.00;102337.25;5034118;28;20443;-68
2023/12/18 01:52:05;;;;;;;2.60;0.80;;;;;;;7.28;100.00;102332.94;5034188;28;20447;-68
2023/12/18 01:54:33;;;;;;;2.93;0.90;;;;;;;7.29;100.00;102329.19;5033993;28;20459;-68
2023/12/18 01:57:00;;;;;;;2.30;1.00;;;;;;;7.32;100.00;102331.41;5033979;28;20427;-68
2023/12/18 01:59:26;;;;;;;2.03;0.57;;;;;;;7.34;100.00;102331.97;5034006;28;20444;-68
2023/12/18 02:01:53;;;;;;;3.33;0.60;;;;;;;7.36;100.00;102330.94;5034210;28;20457;-69
2023/12/18 02:04:21;;;;;;;2.63;0.73;;;;;;;7.36;100.00;102334.47;5033758;28;20501;-69
2023/12/18 02:06:50;;;;;;;3.07;0.90;;;;;;;7.36;100.00;102333.66;5033788;28;20482;-69
2023/12/18 02:09:16;;;;;;;4.73;1.27;;;;;;;7.34;100.00;102329.28;5033959;28;20449;-69
2023/12/18 02:11:44;;;;;;;2.00;0.63;;;;;;;7.45;100.00;102337.63;5033752;28;20447;-68
2023/12/18 02:14:11;;;;;;;2.53;0.70;;;;;;;7.47;100.00;102346.28;5033669;28;20989;-69
2023/12/18 02:16:38;;;;;;;2.30;0.87;;;;;;;7.50;100.00;102340.41;5033772;28;20526;-68
2023/12/18 02:19:05;;;;;;;3.30;0.93;;;;;;;7.52;100.00;102332.91;5034128;28;20442;-68
2023/12/18 02:21:31;;;;;;;5.70;1.00;;;;;;;7.54;100.00;102331.63;5033507;28;20551;-68
2023/12/18 02:23:59;;;;;;;2.57;0.90;;;;;;;7.57;100.00;102336.53;5033525;28;20499;-68
2023/12/18 02:26:26;;;;;;;2.00;0.63;;;;;;;7.53;100.00;102323.78;5033165;28;20578;-68
2023/12/18 02:28:52;;;;;;;2.20;0.80;;;;;;;7.54;100.00;102320.84;5033512;28;20434;-68
2023/12/18 02:31:19;;;;;;;2.63;1.00;;;;;;;7.59;100.00;102317.41;5033510;28;20439;-68
2023/12/18 02:33:48;;;;;;;2.80;1.10;;;;;;;7.61;100.00;102320.69;5033390;28;21011;-68
2023/12/18 02:36:15;;;;;;;2.97;1.20;;;;;;;7.55;100.00;102324.34;5033309;28;20912;-68
2023/12/18 02:38:42;;;;;;;2.90;1.20;;;;;;;7.63;100.00;102320.47;5033726;28;20435;-68
2023/12/18 02:41:10;;;;;;;2.57;1.20;;;;;;;7.75;100.00;102322.09;5033410;28;20475;-68
2023/12/18 02:43:36;;;;;;;3.17;1.00;;;;;;;7.75;100.00;102321.25;5033645;28;20805;-68
2023/12/18 02:46:03;;;;;;;3.43;1.53;;;;;;;7.74;100.00;102308.81;5033623;28;20453;-68
2023/12/18 02:48:30;;;;;;;2.00;0.50;;;;;;;7.74;100.00;102309.63;5033322;28;20866;-68
2023/12/18 02:50:56;;;;;;;3.60;1.60;;;;;;;7.79;100.00;102306.22;5032950;28;20449;-68
2023/12/18 02:53:23;;;;;;;2.73;1.10;;;;;;;7.85;100.00;102305.28;5033535;28;20467;-68
2023/12/18 02:55:50;;;;;;;5.33;1.87;;;;;;;7.85;100.00;102299.88;5032948;28;20471;-68
2023/12/18 02:58:18;;;;;;;3.13;1.10;;;;;;;7.84;100.00;102309.84;5033594;28;20459;-69
2023/12/18 03:00:44;;;;;;;4.00;1.63;;;;;;;7.95;100.00;102302.75;5033209;28;20439;-68
2023/12/18 03:03:11;;;;;;;4.70;1.87;;;;;;;7.93;100.00;102304.91;5033356;28;20993;-67
2023/12/18 03:05:36;;;;;;;4.67;1.63;;;;;;;7.90;100.00;102302.66;5033497;28;20455;-68
2023/12/18 03:08:03;;;;;;;3.87;1.87;;;;;;;7.95;100.00;102308.16;5033200;28;20562;-67
2023/12/18 03:10:30;;;;;;;3.27;1.20;;;;;;;7.89;100.00;102319.09;5036485;28;20205;-67
2023/12/18 03:12:57;;;;;;;3.57;1.77;;;;;;;7.93;100.00;102310.28;5037394;28;20478;-67
2023/12/18 03:15:26;;;;;;;8.30;2.07;;;;;;;7.95;100.00;102326.22;5036898;28;20513;-68
2023/12/18 03:17:52;;;;;;;3.30;1.40;;;;;;;7.97;100.00;102318.69;5036690;28;20446;-67
2023/12/18 03:20:19;;;;;;;5.40;1.80;;;;;;;7.99;100.00;102322.81;5036798;28;20477;-67
2023/12/18 03:22:45;;;;;;;2.53;0.93;;;;;;;7.98;100.00;102317.66;5036593;28;20899;-67
2023/12/18 03:25:12;;;;;;;4.17;1.50;;;;;;;7.96;100.00;102322.47;5036739;28;20501;-68
2023/12/18 03:27:39;;;;;;;4.23;2.17;;;;;;;7.97;100.00;102324.94;5036687;28;20485;-67
2023/12/18 03:30:07;;;;;;;4.37;1.90;;;;;;;7.97;100.00;102318.69;5036533;28;20470;-68
2023/12/18 03:32:35;;;;;;;2.93;1.23;;;;;;;8.04;100.00;102322.09;5036643;28;20445;-68
2023/12/18 03:35:01;;;;;;;4.00;1.90;;;;;;;8.04;100.00;102316.69;5036297;28;20465;-68
2023/12/18 03:37:28;;;;;;;3.63;1.53;;;;;;;7.95;100.00;102312.72;5036320;28;20474;-68
2023/12/18 03:39:54;;;;;;;3.77;1.73;;;;;;;7.98;100.00;102307.69;5036392;28;20810;-68
2023/12/18 03:42:21;;;;;;;3.03;1.50;;;;;;;7.99;100.00;102313.91;5036443;28;20438;-68
2023/12/18 03:44:48;;;;;;;5.07;2.17;;;;;;;7.99;100.00;102305.81;5036317;28;20455;-69
2023/12/18 03:47:14;;;;;;;3.77;1.10;;;;;;;7.88;100.00;102312.03;5036304;28;20569;-69
2023/12/18 03:49:42;;;;;;;4.17;1.60;;;;;;;7.90;100.00;102312.63;5036586;28;20526;-69
2023/12/18 03:52:09;;;;;;;3.40;1.67;;;;;;;7.99;100.00;102311.19;5036282;28;20475;-68
2023/12/18 03:54:35;;;;;;;5.33;1.93;;;;;;;7.99;100.00;102316.59;5036844;28;20454;-67
2023/12/18 03:57:02;;;;;;;6.07;2.53;;;;;;;7.97;100.00;102313.31;5035919;28;20975;-67
2023/12/18 03:59:29;;;;;;;6.80;2.90;;;;;;;7.90;100.00;102318.03;5036132;28;20481;-68
2023/12/18 04:01:55;;;;;;;5.50;2.40;;;;;;;7.87;100.00;102310.41;5036102;28;20876;-68
2023/12/18 04:04:22;;;;;;;3.83;1.27;;;;;;;7.94;100.00;102313.81;5035982;28;20475;-68
2023/12/18 04:06:50;;;;;;;5.00;1.60;;;;;;;7.95;100.00;102316.25;5035919;28;20486;-68
2023/12/18 04:09:16;;;;;;;5.83;2.60;;;;;;;8.02;100.00;102313.44;5035742;28;20443;-68
2023/12/18 04:11:43;;;;;;;6.00;2.87;;;;;;;7.94;100.00;102322.72;5036255;28;20618;-68
2023/12/18 04:14:09;;;;;;;3.27;1.23;;;;;;;7.98;100.00;102315.78;5035845;28;20494;-68
2023/12/18 04:16:36;;;;;;;6.23;1.90;;;;;;;7.96;100.00;102309.78;5035523;28;20848;-68
2023/12/18 04:19:04;;;;;;;4.50;2.30;;;;;;;7.97;100.00;102299.81;5035880;28;20447;-68
2023/12/18 04:21:31;;;;;;;9.50;2.97;;;;;;;8.02;100.00;102303.44;5034399;28;20458;-68
2023/12/18 04:23:59;;;;;;;10.20;2.40;;;;;;;8.04;100.00;102304.00;5035707;28;20482;-68
2023/12/18 04:26:26;;;;;;;3.87;1.60;;;;;;;8.00;100.00;102304.72;5036034;28;20439;-68
2023/12/18 04:28:52;;;;;;;6.40;3.97;;;;;;;7.95;100.00;102304.66;5035985;28;20462;-68
2023/12/18 04:31:20;;;;;;;4.10;2.20;;;;;;;7.98;100.00;102296.06;5035658;28;20500;-68
2023/12/18 04:33:46;;;;;;;4.60;1.80;;;;;;;7.96;100.00;102301.69;5035836;28;20456;-68
2023/12/18 04:36:13;;;;;;;4.13;2.00;;;;;;;8.02;100.00;102305.31;5035492;28;20530;-68
2023/12/18 04:38:42;;;;;;;4.93;2.07;;;;;;;7.96;100.00;102306.28;5035519;28;20435;-67
2023/12/18 04:41:17;;;;;;;4.97;1.70;;;;;;;7.98;100.00;102304.16;5035730;28;20451;-69
2023/12/18 04:43:44;;;;;;;6.30;3.03;;;;;;;7.94;100.00;102306.53;5035025;28;20493;-68
2023/12/18 04:46:11;;;;;;;4.87;1.80;;;;;;;7.97;100.00;102300.66;5035385;28;20467;-68
2023/12/18 04:48:37;;;;;;;6.53;2.57;;;;;;;7.98;99.90;102298.78;5035168;28;20491;-69
2023/12/18 04:51:04;;;;;;;5.80;1.90;;;;;;;8.05;99.71;102299.44;5035059;28;20982;-68
2023/12/18 04:53:33;;;;;;;4.17;2.10;;;;;;;8.02;99.67;102300.75;5035453;28;20443;-68
2023/12/18 04:55:59;;;;;;;4.10;1.77;;;;;;;8.05;99.50;102294.84;5035357;28;20475;-68
2023/12/18 04:58:27;;;;;;;6.87;3.20;;;;;;;8.03;99.32;102291.59;5035244;28;20481;-68
2023/12/18 05:00:54;;;;;;;6.00;3.20;;;;;;;7.98;99.77;102282.59;5035351;28;20522;-68
2023/12/18 05:03:21;;;;;;;6.13;2.83;;;;;;;7.99;99.70;102286.91;5034846;28;20474;-68
2023/12/18 05:05:47;;;;;;;7.20;3.33;;;;;;;7.98;99.75;102294.19;5035077;28;20482;-68
2023/12/18 05:08:14;;;;;;;3.13;1.50;;;;;;;7.96;99.84;102285.50;5034509;28;21014;-68
2023/12/18 05:10:40;;;;;;;4.77;2.27;;;;;;;7.95;99.77;102286.56;5035140;28;20479;-68
2023/12/18 05:13:07;;;;;;;5.47;2.03;;;;;;;7.91;100.00;102285.41;5034606;28;20970;-69
2023/12/18 05:15:35;;;;;;;6.50;2.93;;;;;;;7.94;100.00;102286.81;5034676;28;20498;-68
2023/12/18 05:18:02;;;;;;;7.23;2.10;;;;;;;7.90;100.00;102296.47;5034725;28;20439;-68
2023/12/18 05:20:28;;;;;;;4.00;1.80;;;;;;;7.95;100.00;102301.94;5034713;28;20458;-68
2023/12/18 05:22:55;;;;;;;5.90;3.07;;;;;;;7.90;100.00;102299.97;5035183;28;20451;-68
2023/12/18 05:25:21;;;;;;;4.07;1.90;;;;;;;7.91;100.00;102301.59;5034386;28;20975;-68
2023/12/18 05:27:48;;;;;;;4.67;2.50;;;;;;;7.93;99.57;102307.59;5034354;28;20493;-68
2023/12/18 05:30:15;;;;;;;3.50;1.50;;;;;;;7.92;98.81;102322.13;5034572;28;20435;-68
2023/12/18 05:32:43;;;;;;;4.10;2.10;;;;;;;7.88;98.65;102328.22;5034354;28;20471;-69
2023/12/18 05:35:09;;;;;;;4.80;2.30;;;;;;;7.86;98.36;102323.09;5034433;28;21035;-69
2023/12/18 05:37:36;;;;;;;6.17;2.23;;;;;;;7.87;97.85;102332.81;5034667;28;20442;-69
2023/12/18 05:40:03;;;;;;;6.37;2.50;;;;;;;7.86;97.27;102333.06;5034269;28;20439;-69
2023/12/18 05:42:29;;;;;;;4.60;1.90;;;;;;;7.94;96.88;102335.38;5034577;28;20439;-68
2023/12/18 05:44:56;;;;;;;3.67;1.83;;;;;;;7.95;96.81;102335.13;5033880;28;20998;-69
2023/12/18 05:47:23;;;;;;;5.30;2.57;;;;;;;7.87;97.33;102340.09;5034487;28;20522;-69
2023/12/18 05:49:50;;;;;;;5.53;2.40;;;;;;;7.90;97.22;102337.75;5034148;28;20471;-69
2023/12/18 05:52:18;;;;;;;8.07;3.00;;;;;;;7.89;97.08;102343.38;5034075;28;20531;-68
2023/12/18 05:54:44;;;;;;;5.80;2.27;;;;;;;7.82;97.80;102344.31;5033933;28;20462;-68
2023/12/18 05:57:14;;;;;;;6.43;1.97;;;;;;;7.80;98.17;102337.53;5033766;28;20443;-68
2023/12/18 05:59:40;;;;;;;7.30;3.13;;;;;;;7.87;97.74;102343.59;5033984;28;20443;-68
2023/12/18 06:02:07;;;;;;;5.80;2.93;;;;;;;7.81;97.74;102334.59;5033867;28;20471;-68
2023/12/18 06:04:33;;;;;;;5.63;2.43;;;;;;;7.84;97.68;102330.63;5033767;28;20490;-68
2023/12/18 06:07:01;;;;;;;8.17;3.10;;;;;;;7.90;96.80;102339.63;5033815;28;20923;-68
2023/12/18 06:09:28;;;;;;;5.03;2.30;;;;;;;7.82;97.24;102341.63;5033544;28;20439;-69
2023/12/18 06:11:55;;;;;;;4.10;1.83;;;;;;;7.81;97.33;102331.91;5034099;28;20450;-68
2023/12/18 06:14:21;;;;;;;11.63;3.00;;;;;;;7.83;97.23;102328.94;5033679;28;20474;-68
2023/12/18 06:16:48;;;;;;;4.27;1.77;;;;;;;7.89;96.72;102341.50;5033652;28;20809;-69
2023/12/18 06:19:14;;;;;;;3.90;1.90;;;;;;;7.88;96.81;102347.13;5033403;28;20471;-69
2023/12/18 06:21:41;;;;;;;4.70;2.00;;;;;;;7.83;97.19;102345.13;5033947;28;20455;-69
2023/12/18 06:24:10;;;;;;;4.63;2.07;;;;;;;7.79;97.38;102349.38;5033766;28;20454;-69
2023/12/18 06:26:36;;;;;;;4.37;2.30;;;;;;;7.85;96.69;102337.66;5034040;28;20951;-69
2023/12/18 06:29:03;;;;;;;5.27;2.67;;;;;;;7.92;96.40;102342.88;5033410;28;20489;-69
2023/12/18 06:31:29;;;;;;;2.90;1.47;;;;;;;7.88;96.77;102350.66;5033559;28;20475;-68
2023/12/18 06:33:56;;;;;;;3.67;2.00;;;;;;;7.90;96.58;102343.13;5033195;28;21025;-68
2023/12/18 06:36:22;;;;;;;3.53;1.83;;;;;;;7.86;97.16;102333.06;5033360;28;20443;-68
2023/12/18 06:38:49;;;;;;;4.87;2.37;;;;;;;7.88;97.12;102336.31;5033671;28;20438;-68
2023/12/18 06:41:17;;;;;;;5.53;1.93;;;;;;;7.87;97.18;102340.09;5033340;28;20518;-68
2023/12/18 06:43:44;;;;;;;7.27;2.40;;;;;;;7.83;97.58;102342.44;5033195;28;20494;-68
2023/12/18 06:46:10;;;;;;;9.27;1.80;;;;;;;7.86;97.53;102347.38;5037965;28;20526;-68
2023/12/18 06:48:39;;;;;;;3.30;1.67;;;;;;;7.88;97.62;102341.72;5037412;28;20951;-68
2023/12/18 06:51:05;;;;;;;7.00;2.30;;;;;;;7.81;98.15;102350.78;5037810;28;20447;-68
2023/12/18 06:53:32;;;;;;;5.17;2.63;;;;;;;7.80;98.21;102351.84;5037307;28;20453;-68
2023/12/18 06:55:58;;;;;;;4.10;2.13;;;;;;;7.81;97.92;102348.09;5037411;28;20444;-68
2023/12/18 06:58:26;;;;;;;4.03;1.53;;;;;;;7.86;97.74;102354.66;5037461;28;20431;-69
2023/12/18 07:00:53;;;;;;;5.07;2.73;;;;;;;7.80;98.19;102362.63;5037378;28;20471;-69
2023/12/18 07:03:20;;;;;;;5.93;2.47;;;;;;;7.80;98.36;102361.81;5037368;28;20904;-68
2023/12/18 07:05:46;;;;;;;6.97;3.20;;;;;;;7.80;98.34;102373.44;5036996;28;20454;-68
2023/12/18 07:08:13;;;;;;;7.20;2.60;;;;;;;7.84;97.53;102377.28;5037060;28;20494;-69
2023/12/18 07:10:40;;;;;;;5.43;2.73;;;;;;;7.93;96.74;102376.94;5037440;28;20445;-69
2023/12/18 07:13:06;;;;;;;3.40;1.77;;;;;;;7.90;96.87;102362.03;5037127;28;20526;-69
2023/12/18 07:15:34;;;;;;;7.80;2.00;;;;;;;7.87;96.78;102361.66;5037273;28;20466;-69
2023/12/18 07:18:01;;;;;;;6.97;2.47;;;;;;;7.89;96.60;102371.19;5037267;28;20501;-68
2023/12/18 07:20:27;;;;;;;7.33;2.17;;;;;;;7.82;96.94;102367.78;5057026;22;20495;-63
2023/12/18 07:22:54;;;;;;;5.13;2.03;;;;;;;7.88;96.58;102374.94;5076543;28;20501;-63
2023/12/18 07:25:20;;;;;;;10.47;2.80;;;;;;;7.83;96.91;102367.56;5076365;28;20457;-63
2023/12/18 07:27:47;;;;;;;4.50;2.20;;;;;;;7.86;96.83;102363.56;5076698;28;20915;-63
2023/12/18 07:30:15;;;;;;;5.40;2.23;;;;;;;7.81;97.73;102366.97;5076709;28;20532;-63
2023/12/18 07:32:43;;;;;;;5.67;2.27;;;;;;;7.83;97.09;102372.97;5076427;28;20956;-63
2023/12/18 07:35:09;;;;;;;4.50;2.30;;;;;;;7.83;97.42;102366.72;5076258;28;20515;-63
2023/12/18 07:37:36;;;;;;;5.83;2.57;;;;;;;7.87;97.01;102367.88;5076255;28;20456;-63
2023/12/18 07:40:03;;;;;;;7.20;2.87;;;;;;;7.87;97.04;102369.78;5076541;28;20532;-63
2023/12/18 07:42:30;;;;;;;3.87;2.00;;;;;;;7.87;97.24;102372.47;5076558;28;20441;-63
2023/12/18 07:44:56;;;;;;;5.63;2.27;;;;;;;7.93;96.71;102383.13;5076565;28;20487;-63
2023/12/18 07:47:23;;;;;;;4.13;2.00;;;;;;;7.95;96.48;102380.19;5076466;28;20523;-63
2023/12/18 07:49:51;;;;;;;4.23;2.20;;;;;;;7.90;96.78;102367.41;5076352;28;20485;-63
2023/12/18 07:52:18;;;;;;;5.97;2.87;;;;;;;7.92;97.22;102359.06;5076428;28;20468;-63
2023/12/18 07:54:44;;;;;;;6.53;2.30;;;;;;;7.93;97.30;102364.25;5076239;28;20457;-63
2023/12/18 07:57:11;;;;;;;3.83;2.10;;;;;;;7.97;97.20;102364.56;5076196;28;20448;-63
2023/12/18 07:59:39;;;;;;;4.33;2.10;;;;;;;7.99;96.48;102370.56;5076170;28;20442;-65
2023/12/18 08:02:06;;;;;;;2.80;1.60;;;;;;;7.96;96.67;102362.94;5076146;28;20506;-63
2023/12/18 08:04:33;;;;;;;6.17;2.60;;;;;;;7.98;97.09;102366.22;5076045;28;20450;-63
2023/12/18 08:07:01;;;;;;;3.93;1.90;;;;;;;7.98;96.83;102371.63;5076015;28;21016;-63
2023/12/18 08:09:28;;;;;;;5.00;2.30;;;;;;;8.01;96.65;102363.03;5075894;28;20485;-63
2023/12/18 08:11:54;;;;;;;4.93;2.00;;;;;;;8.00;96.75;102364.09;5075924;28;20523;-63
2023/12/18 08:14:21;;;;;;;3.50;1.60;;;;;;;8.02;96.75;102360.13;5075748;28;20527;-63
2023/12/18 08:16:47;;;;;;;7.90;3.27;;;;;;;8.09;96.41;102368.06;5076214;28;20526;-63
2023/12/18 08:19:14;;;;;;;4.80;2.30;;;;;;;8.12;95.79;102367.59;5075517;28;20983;-63
2023/12/18 08:21:41;;;;;;;3.67;2.30;;;;;;;8.12;95.50;102372.97;5075887;28;20451;-63
2023/12/18 08:24:09;;;;;;;5.30;2.23;;;;;;;8.09;95.58;102376.16;5076012;28;20548;-63
2023/12/18 08:26:35;;;;;;;6.63;2.93;;;;;;;8.03;95.63;102387.91;5075949;28;20438;-63
2023/12/18 08:29:04;;;;;;;5.87;2.53;;;;;;;8.02;95.86;102370.91;5075901;28;20489;-63
2023/12/18 08:31:31;;;;;;;4.63;2.77;;;;;;;8.07;95.39;102372.88;5075654;28;20467;-63
2023/12/18 08:33:57;;;;;;;4.77;2.50;;;;;;;8.10;95.41;102375.09;5075483;28;20484;-63
2023/12/18 08:36:24;;;;;;;4.70;1.70;;;;;;;8.05;95.95;102369.59;5076075;28;20528;-63
2023/12/18 08:38:50;;;;;;;3.87;2.00;;;;;;;8.10;95.21;102356.19;5075389;28;20443;-64
2023/12/18 08:41:18;;;;;;;3.70;1.70;;;;;;;8.02;96.18;102364.69;5075641;28;20433;-63
2023/12/18 08:43:45;;;;;;;5.33;2.23;;;;;;;8.08;95.90;102352.94;5075924;28;20548;-63
2023/12/18 08:46:11;;;;;;;4.60;2.10;;;;;;;8.05;95.65;102350.69;5075365;28;21011;-63
2023/12/18 08:48:38;;;;;;;5.13;2.27;;;;;;;7.99;96.37;102355.19;5075241;28;20481;-63
2023/12/18 08:51:05;;;;;;;7.40;1.87;;;;;;;7.98;96.77;102353.56;5075205;28;20452;-63
2023/12/18 08:53:31;;;;;;;4.10;1.50;;;;;;;8.00;97.03;102347.91;5075091;28;20465;-63
2023/12/18 08:55:58;;;;;;;4.47;1.93;;;;;;;7.98;97.21;102347.34;5075156;28;20524;-65
2023/12/18 08:58:26;;;;;;;6.10;2.83;;;;;;;7.97;97.48;102346.53;5075395;28;20448;-64
2023/12/18 09:00:53;;;;;;;8.50;2.50;;;;;;;7.95;97.63;102359.41;5075680;28;20437;-64
2023/12/18 09:03:20;;;;;;;4.93;2.47;;;;;;;7.92;97.84;102357.19;5074556;28;20922;-63
2023/12/18 09:05:47;;;;;;;4.13;1.60;;;;;;;7.99;97.51;102363.28;5074844;28;20445;-64
2023/12/18 09:08:14;;;;;;;5.90;1.70;;;;;;;7.98;97.54;102364.34;5074083;28;20480;-65
2023/12/18 09:10:41;;;;;;;6.23;2.60;;;;;;;7.90;98.49;102366.59;5074859;28;21032;-66
2023/12/18 09:13:07;;;;;;;4.57;1.73;;;;;;;7.92;97.85;102372.56;5075122;28;20438;-65
2023/12/18 09:15:39;;;;;;;3.80;1.70;;;;;;;7.90;98.10;102356.63;5075011;28;20840;-65
2023/12/18 09:18:06;;;;;;;7.93;2.50;;;;;;;7.89;98.74;102354.19;5075006;28;20479;-65
2023/12/18 09:20:33;;;;;;;6.13;2.07;;;;;;;7.92;97.77;102343.69;5074576;28;20532;-65
2023/12/18 09:23:00;;;;;;;4.47;1.87;;;;;;;7.94;97.68;102354.28;5074904;28;20499;-65
2023/12/18 09:25:26;;;;;;;4.30;2.40;;;;;;;7.93;97.77;102348.06;5074347;28;20484;-65
2023/12/18 09:27:53;;;;;;;10.50;2.50;;;;;;;7.96;98.42;102338.66;5074478;28;20443;-65
2023/12/18 09:30:19;;;;;;;3.20;1.77;;;;;;;7.96;97.87;102344.03;5074406;28;20881;-65
2023/12/18 09:32:47;;;;;;;4.10;1.80;;;;;;;8.07;97.17;102356.69;5074447;28;20469;-64
2023/12/18 09:35:14;;;;;;;3.70;1.77;;;;;;;8.01;97.16;102345.00;5074234;28;20493;-63
2023/12/18 09:37:41;;;;;;;4.13;1.70;;;;;;;8.02;97.86;102359.28;5074211;28;20440;-63
2023/12/18 09:40:09;;;;;;;5.17;2.93;;;;;;;8.08;97.46;102361.84;5074066;28;20938;-63
2023/12/18 09:42:37;;;;;;;4.70;2.30;;;;;;;8.15;96.53;102369.00;5074832;28;20472;-63
2023/12/18 09:45:06;;;;;;;3.50;1.80;;;;;;;8.15;96.42;102358.19;5074071;28;20968;-64
2023/12/18 09:47:33;;;;;;;7.60;3.20;;;;;;;8.08;96.60;102364.53;5074117;28;20434;-64
2023/12/18 09:50:01;;;;;;;5.73;2.77;;;;;;;8.13;96.60;102342.22;5074251;28;20487;-65
2023/12/18 09:52:30;;;;;;;7.73;2.80;;;;;;;8.15;96.28;102326.63;5074224;28;20445;-65
2023/12/18 09:54:59;;;;;;;3.70;1.87;;;;;;;8.05;96.96;102326.41;5073904;28;20465;-67
2023/12/18 09:57:26;;;;;;;7.97;3.33;;;;;;;8.02;96.76;102327.72;5074375;28;20477;-67
2023/12/18 09:59:54;;;;;;;6.00;2.33;;;;;;;8.02;97.24;102337.72;5073848;28;20979;-64
2023/12/18 10:02:22;;;;;;;4.53;2.30;;;;;;;8.10;97.18;102340.00;5074258;28;20469;-63
2023/12/18 10:04:49;;;;;;;4.73;1.80;;;;;;;8.14;96.95;102345.75;5073633;28;20465;-63
2023/12/18 10:07:17;;;;;;;5.13;1.77;;;;;;;8.12;96.98;102348.69;5074149;28;20448;-63
2023/12/18 10:09:44;;;;;;;6.07;2.80;;;;;;;8.14;96.94;102334.94;5073390;28;20493;-63
2023/12/18 10:12:13;;;;;;;14.30;2.00;;;;;;;8.08;96.97;102334.03;5073746;28;20525;-63
2023/12/18 10:14:40;;;;;;;6.30;2.27;;;;;;;8.01;97.95;102334.19;5073704;28;20859;-64
2023/12/18 10:17:07;;;;;;;6.80;3.10;;;;;;;8.13;96.90;102344.94;5073398;28;20524;-63
2023/12/18 10:19:33;;;;;;;8.20;2.73;;;;;;;8.17;96.74;102334.47;5073904;28;20441;-64
2023/12/18 10:22:00;;;;;;;5.37;2.90;;;;;;;8.15;96.83;102331.22;5073398;28;20457;-63
2023/12/18 10:24:28;;;;;;;3.20;1.30;;;;;;;8.17;96.26;102335.28;5073948;28;20468;-63
2023/12/18 10:26:54;;;;;;;6.10;2.60;;;;;;;8.16;96.40;102336.34;5073603;28;20540;-63
2023/12/18 10:29:21;;;;;;;5.17;2.20;;;;;;;8.17;96.34;102329.88;5073555;28;20492;-64
2023/12/18 10:31:48;;;;;;;4.73;1.90;;;;;;;8.14;97.12;102319.56;5073236;28;21019;-63
2023/12/18 10:34:18;;;;;;;4.60;2.63;;;;;;;8.16;97.23;102317.47;5073538;28;20461;-63
2023/12/18 10:36:45;;;;;;;6.00;3.13;;;;;;;8.22;96.38;102315.66;5073872;28;20528;-63
2023/12/18 10:39:15;;;;;;;5.47;2.60;;;;;;;8.26;96.15;102311.44;5073525;28;20440;-64
2023/12/18 10:41:45;;;;;;;6.60;2.30;;;;;;;8.23;96.14;102312.72;5074028;28;20893;-63
2023/12/18 10:44:14;;;;;;;4.00;1.83;;;;;;;8.20;95.27;102313.22;5073107;28;20972;-63
2023/12/18 10:46:41;;;;;;;3.60;1.63;;;;;;;8.22;95.77;102311.09;5073464;28;20948;-63
2023/12/18 10:49:09;;;;;;;4.83;2.60;;;;;;;8.26;95.69;102296.03;5073278;28;20484;-64
2023/12/18 10:51:37;;;;;;;4.73;2.50;;;;;;;8.26;95.64;102296.03;5073371;28;20472;-64
2023/12/18 10:54:06;;;;;;;5.27;2.50;;;;;;;8.25;95.50;102299.81;5073773;28;20493;-64
2023/12/18 10:56:34;;;;;;;6.43;3.20;;;;;;;8.28;95.71;102304.72;5073308;28;20445;-63
2023/12/18 10:59:04;;;;;;;3.90;2.07;;;;;;;8.34;95.12;102301.03;5073300;28;20950;-64
2023/12/18 11:01:32;;;;;;;9.00;3.23;;;;;;;8.39;94.81;102305.75;5073942;28;20744;-64
2023/12/18 11:03:59;;;;;;;5.13;2.10;;;;;;;8.25;95.71;102312.50;5073156;28;20530;-64
2023/12/18 11:06:26;;;;;;;3.87;1.90;;;;;;;8.29;95.45;102324.44;5073455;28;20440;-64
2023/12/18 11:08:53;;;;;;;3.67;1.67;;;;;;;8.23;95.48;102310.00;5073571;28;20445;-63
2023/12/18 11:11:22;;;;;;;7.43;3.37;;;;;;;8.21;95.47;102309.44;5073225;28;20528;-64
2023/12/18 11:14:03;;;;;;;2.87;1.50;;;;;;;8.26;95.56;102304.13;5073781;28;20540;-64
2023/12/18 11:16:42;;;;;;;4.13;1.80;;;;;;;8.32;95.14;102307.75;5073494;28;20425;-63
2023/12/18 11:19:20;;;;;;;4.80;2.40;;;;;;;8.35;94.38;102310.78;5073178;28;20500;-64
2023/12/18 11:21:48;;;;;;;4.50;1.60;;;;;;;8.28;94.89;102301.22;5073188;28;20445;-63
2023/12/18 11:24:16;;;;;;;5.07;2.43;;;;;;;8.29;94.87;102295.56;5073022;28;20464;-64
2023/12/18 11:26:45;;;;;;;5.40;2.50;;;;;;;8.28;94.96;102296.63;5073050;28;20437;-66
2023/12/18 11:29:39;;;;;;;6.20;3.57;;;;;;;8.27;94.51;102291.47;5072984;28;20477;-67